Zeigler, Illinois
Current Conditions -  °F | °C
As of 11:53 AM on Saturday 22 Nov 2014 (Local Time) from KMWA Reporting Station
Broken Clouds Broken Clouds  
Wind Chill: 16°   Ceiling: 25000
Heat Index: 16°   Visibility: 20mi
Dew Point:   Wind: 15mph
Humidity: 55%   Direction: 200°SSW
Pressure: 30.13"   Gusts: NA
Location:  37.9°N, 89.05°W
Report Text: KMWA 221753Z 20013KT 20SM SCT060 BKN250 16/07 A3013
Loading
Personal Weather Stations






























Interactive Weather Map New forecast layout! Learn more

10-Day Weather Forecast

Advertisements
Track Severe Weather on mobile